Aeroporto :
LOGIN :

Iscrizione | Disclaimer

   EN    FR    IT 

 










Sommario :    VFR   VFR Marginale   IFR   IFR Intensivo   IFR Molto Intensivo
Visibilità : 
Base nubi : 
>= 8 km
>= 3000ft
5 / 8 km
1000 / 3000 ft
1500m / 5 km
500 / 1000 ft
800 / 1500m
200 / 500 ft
< 800m
< 200 ft
Simboli :   Temporali  Nebbia  Neve Forte  Precipitazioni Forti  Vento > 20 kt
SIGMETs :   Varie  Temporali  Ghiacco  Turbolenza  Onda orograficha  Ceneri Vulcaniche






- Altitudine del aeroporto : 1367 ft
- Codice IATA : FDH


EDNY - Friedrichshafen

ULTIMO METAR :
  • 270750Z VRB02KT 9999 -RA SCT022 BKN030 OVC045 01/01 Q0992

METARs OBSOLETI :
  • 270720Z AUTO 00000KT 9999 // FEW026/// BKN088/// BKN100/// 01/00 Q0991
  • 270650Z AUTO 24005KT 9999 // SCT028/// BKN051/// OVC085/// 01/00 Q0991
  • 270620Z AUTO VRB02KT 9999 // SCT044/// BKN054/// OVC075/// 01/M00 Q0991
  • 270550Z AUTO VRB01KT 9999 // FEW021/// SCT063/// OVC079/// 00/M00 Q0991
  • 270520Z AUTO 10003KT 060V120 9999 // BKN040/// BKN051/// OVC061/// M00/M00 Q0991

TAF TAF EDNY
Valido dal 27 a 06 ore il 28 a 06 ore UTC


270500Z 2706/2806 VRB03KT 9999 SCT040
PROB30
TEMPO 2706/2709 3000 -SN BKN006
PROB40
TEMPO 2709/2717 4500 -RASN BKN008
PROB30
TEMPO 2723/2806 3500 BR



MetMap, La meteo Aeronautica in un colpo d'occhio ! - Copyright ORBIFLY Dicembre 2007 - Disclaimer

ORBIFLY MET'MAP TEAM :

Programmazione e sviluppo : Alexandra Zaïnal
Concezione : Baudouin d'Aumeries
Aiuto per la programmazione : Marc-Olivier Méhu
Supporto tecnico e logistico : Manuel Goepfert
Aiuto per la traduzione : Arnaldo La Scala

Contatto : metmap@orbifly.com




FONTI E CREDITI :

   NOAA